sensor_id;sensor_type;location;lat;lon;timestamp;P1;durP1;ratioP1;P2;durP2;ratioP2
286;SDS011;127;48.770;9.212;2023-03-31T00:01:25;7.47;;;2.47;;
286;SDS011;127;48.770;9.212;2023-03-31T00:03:53;11.70;;;3.10;;
286;SDS011;127;48.770;9.212;2023-03-31T00:06:27;9.80;;;2.93;;
286;SDS011;127;48.770;9.212;2023-03-31T00:08:57;8.80;;;2.43;;
286;SDS011;127;48.770;9.212;2023-03-31T00:11:29;11.43;;;3.27;;
286;SDS011;127;48.770;9.212;2023-03-31T00:13:58;6.17;;;2.50;;
286;SDS011;127;48.770;9.212;2023-03-31T00:16:26;11.40;;;2.67;;
286;SDS011;127;48.770;9.212;2023-03-31T00:18:55;7.40;;;2.37;;
286;SDS011;127;48.770;9.212;2023-03-31T00:21:26;5.17;;;2.57;;
286;SDS011;127;48.770;9.212;2023-03-31T00:23:58;7.53;;;2.80;;
286;SDS011;127;48.770;9.212;2023-03-31T00:26:31;4.67;;;2.60;;
286;SDS011;127;48.770;9.212;2023-03-31T00:29:01;9.17;;;2.93;;
286;SDS011;127;48.770;9.212;2023-03-31T00:31:30;5.63;;;2.63;;
286;SDS011;127;48.770;9.212;2023-03-31T00:34:00;8.80;;;1.90;;
286;SDS011;127;48.770;9.212;2023-03-31T00:36:28;10.10;;;2.90;;
286;SDS011;127;48.770;9.212;2023-03-31T00:39:01;5.83;;;2.70;;
286;SDS011;127;48.770;9.212;2023-03-31T00:41:35;8.60;;;2.00;;
286;SDS011;127;48.770;9.212;2023-03-31T00:44:06;6.87;;;2.50;;
286;SDS011;127;48.770;9.212;2023-03-31T00:46:37;11.13;;;2.80;;
286;SDS011;127;48.770;9.212;2023-03-31T00:49:13;8.13;;;2.50;;
286;SDS011;127;48.770;9.212;2023-03-31T00:51:47;9.07;;;2.47;;
286;SDS011;127;48.770;9.212;2023-03-31T00:54:19;4.90;;;2.43;;
286;SDS011;127;48.770;9.212;2023-03-31T00:56:53;10.83;;;3.20;;
286;SDS011;127;48.770;9.212;2023-03-31T00:59:27;8.53;;;2.77;;
286;SDS011;127;48.770;9.212;2023-03-31T01:01:58;12.60;;;3.17;;
286;SDS011;127;48.770;9.212;2023-03-31T01:04:30;10.30;;;2.40;;
286;SDS011;127;48.770;9.212;2023-03-31T01:07:03;9.43;;;2.30;;
286;SDS011;127;48.770;9.212;2023-03-31T01:09:36;19.90;;;3.20;;
286;SDS011;127;48.770;9.212;2023-03-31T01:12:09;8.80;;;2.83;;
286;SDS011;127;48.770;9.212;2023-03-31T01:14:38;9.43;;;2.43;;
286;SDS011;127;48.770;9.212;2023-03-31T01:17:07;11.53;;;2.80;;
286;SDS011;127;48.770;9.212;2023-03-31T01:19:47;8.50;;;2.80;;
286;SDS011;127;48.770;9.212;2023-03-31T01:22:39;13.20;;;3.20;;
286;SDS011;127;48.770;9.212;2023-03-31T01:25:38;9.57;;;3.10;;
286;SDS011;127;48.770;9.212;2023-03-31T01:28:42;9.77;;;2.87;;
286;SDS011;127;48.770;9.212;2023-03-31T01:34:23;11.43;;;3.00;;
286;SDS011;127;48.770;9.212;2023-03-31T01:40:42;8.77;;;2.70;;
286;SDS011;127;48.770;9.212;2023-03-31T01:43:23;11.93;;;2.80;;
286;SDS011;127;48.770;9.212;2023-03-31T01:45:56;10.27;;;3.03;;
286;SDS011;127;48.770;9.212;2023-03-31T01:48:34;5.93;;;2.50;;
286;SDS011;127;48.770;9.212;2023-03-31T01:51:12;9.20;;;2.80;;
286;SDS011;127;48.770;9.212;2023-03-31T01:53:47;10.43;;;2.83;;
286;SDS011;127;48.770;9.212;2023-03-31T01:56:24;14.93;;;3.30;;
286;SDS011;127;48.770;9.212;2023-03-31T01:58:59;6.43;;;2.83;;
286;SDS011;127;48.770;9.212;2023-03-31T02:01:33;11.10;;;2.67;;
286;SDS011;127;48.770;9.212;2023-03-31T02:04:06;9.13;;;2.60;;
286;SDS011;127;48.770;9.212;2023-03-31T02:06:40;6.60;;;2.80;;
286;SDS011;127;48.770;9.212;2023-03-31T02:09:14;14.43;;;2.83;;
286;SDS011;127;48.770;9.212;2023-03-31T02:11:48;6.80;;;3.10;;
286;SDS011;127;48.770;9.212;2023-03-31T02:14:19;12.37;;;3.20;;
286;SDS011;127;48.770;9.212;2023-03-31T02:16:51;8.40;;;2.90;;
286;SDS011;127;48.770;9.212;2023-03-31T02:19:28;8.37;;;3.07;;
286;SDS011;127;48.770;9.212;2023-03-31T02:21:59;12.00;;;2.77;;
286;SDS011;127;48.770;9.212;2023-03-31T02:24:31;11.07;;;2.93;;
286;SDS011;127;48.770;9.212;2023-03-31T02:27:05;5.03;;;2.53;;
286;SDS011;127;48.770;9.212;2023-03-31T02:29:36;12.67;;;3.07;;
286;SDS011;127;48.770;9.212;2023-03-31T02:32:07;8.57;;;2.73;;
286;SDS011;127;48.770;9.212;2023-03-31T02:34:40;13.43;;;3.27;;
286;SDS011;127;48.770;9.212;2023-03-31T02:37:08;15.77;;;3.00;;
286;SDS011;127;48.770;9.212;2023-03-31T02:39:37;9.83;;;2.87;;
286;SDS011;127;48.770;9.212;2023-03-31T02:42:12;4.97;;;2.70;;
286;SDS011;127;48.770;9.212;2023-03-31T02:44:41;10.93;;;3.13;;
286;SDS011;127;48.770;9.212;2023-03-31T02:47:11;12.50;;;4.07;;
286;SDS011;127;48.770;9.212;2023-03-31T02:49:43;7.70;;;3.20;;
286;SDS011;127;48.770;9.212;2023-03-31T02:52:19;11.10;;;2.57;;
286;SDS011;127;48.770;9.212;2023-03-31T03:01:06;10.80;;;3.20;;
286;SDS011;127;48.770;9.212;2023-03-31T03:03:44;8.60;;;3.07;;
286;SDS011;127;48.770;9.212;2023-03-31T03:06:30;16.53;;;3.97;;
286;SDS011;127;48.770;9.212;2023-03-31T03:09:07;7.83;;;3.20;;
286;SDS011;127;48.770;9.212;2023-03-31T03:11:48;7.87;;;3.30;;
286;SDS011;127;48.770;9.212;2023-03-31T03:14:30;16.40;;;4.70;;
286;SDS011;127;48.770;9.212;2023-03-31T03:17:05;6.50;;;3.37;;
286;SDS011;127;48.770;9.212;2023-03-31T03:19:39;16.93;;;3.20;;
286;SDS011;127;48.770;9.212;2023-03-31T03:22:09;5.60;;;2.50;;
286;SDS011;127;48.770;9.212;2023-03-31T03:24:37;5.50;;;3.17;;
286;SDS011;127;48.770;9.212;2023-03-31T03:27:06;6.40;;;3.23;;
286;SDS011;127;48.770;9.212;2023-03-31T03:29:37;8.93;;;3.50;;
286;SDS011;127;48.770;9.212;2023-03-31T03:32:07;17.80;;;4.10;;
286;SDS011;127;48.770;9.212;2023-03-31T03:34:36;9.23;;;3.87;;
286;SDS011;127;48.770;9.212;2023-03-31T03:37:05;9.87;;;3.17;;
286;SDS011;127;48.770;9.212;2023-03-31T03:39:33;9.97;;;3.50;;
286;SDS011;127;48.770;9.212;2023-03-31T03:42:02;6.53;;;2.93;;
286;SDS011;127;48.770;9.212;2023-03-31T03:44:31;5.87;;;3.13;;
286;SDS011;127;48.770;9.212;2023-03-31T03:47:02;8.50;;;3.53;;
286;SDS011;127;48.770;9.212;2023-03-31T03:49:31;7.70;;;3.73;;
286;SDS011;127;48.770;9.212;2023-03-31T03:52:00;7.53;;;3.13;;
286;SDS011;127;48.770;9.212;2023-03-31T03:54:28;5.53;;;3.07;;
286;SDS011;127;48.770;9.212;2023-03-31T03:56:57;9.67;;;3.70;;
286;SDS011;127;48.770;9.212;2023-03-31T03:59:26;11.30;;;3.33;;
286;SDS011;127;48.770;9.212;2023-03-31T04:01:54;7.67;;;3.63;;
286;SDS011;127;48.770;9.212;2023-03-31T04:04:26;7.90;;;3.23;;
286;SDS011;127;48.770;9.212;2023-03-31T04:06:54;7.93;;;3.50;;
286;SDS011;127;48.770;9.212;2023-03-31T04:09:23;7.67;;;3.83;;
286;SDS011;127;48.770;9.212;2023-03-31T04:11:52;9.20;;;3.40;;
286;SDS011;127;48.770;9.212;2023-03-31T04:14:21;14.50;;;4.50;;
286;SDS011;127;48.770;9.212;2023-03-31T04:16:50;9.33;;;4.17;;
286;SDS011;127;48.770;9.212;2023-03-31T04:19:20;11.47;;;4.57;;
286;SDS011;127;48.770;9.212;2023-03-31T04:21:54;10.73;;;4.00;;
286;SDS011;127;48.770;9.212;2023-03-31T04:24:28;10.73;;;4.17;;
286;SDS011;127;48.770;9.212;2023-03-31T04:26:57;10.70;;;4.50;;
286;SDS011;127;48.770;9.212;2023-03-31T04:29:29;14.83;;;4.07;;
286;SDS011;127;48.770;9.212;2023-03-31T04:31:58;11.70;;;4.30;;
286;SDS011;127;48.770;9.212;2023-03-31T04:34:27;16.47;;;4.80;;
286;SDS011;127;48.770;9.212;2023-03-31T04:37:01;7.30;;;3.90;;
286;SDS011;127;48.770;9.212;2023-03-31T04:39:33;13.70;;;4.33;;
286;SDS011;127;48.770;9.212;2023-03-31T04:42:02;11.83;;;4.47;;
286;SDS011;127;48.770;9.212;2023-03-31T04:44:30;13.93;;;4.83;;
286;SDS011;127;48.770;9.212;2023-03-31T04:46:59;13.60;;;4.53;;
286;SDS011;127;48.770;9.212;2023-03-31T04:49:28;10.53;;;4.50;;
286;SDS011;127;48.770;9.212;2023-03-31T04:51:57;13.80;;;5.47;;
286;SDS011;127;48.770;9.212;2023-03-31T04:54:28;7.33;;;3.93;;
286;SDS011;127;48.770;9.212;2023-03-31T04:56:57;14.20;;;4.70;;
286;SDS011;127;48.770;9.212;2023-03-31T04:59:25;11.10;;;4.47;;
286;SDS011;127;48.770;9.212;2023-03-31T05:01:54;17.00;;;5.33;;
286;SDS011;127;48.770;9.212;2023-03-31T05:04:23;14.17;;;4.13;;
286;SDS011;127;48.770;9.212;2023-03-31T05:06:51;11.33;;;4.40;;
286;SDS011;127;48.770;9.212;2023-03-31T05:09:23;10.60;;;4.47;;
286;SDS011;127;48.770;9.212;2023-03-31T05:11:51;9.57;;;4.80;;
286;SDS011;127;48.770;9.212;2023-03-31T05:14:20;7.37;;;4.40;;
286;SDS011;127;48.770;9.212;2023-03-31T05:16:49;17.27;;;4.80;;
286;SDS011;127;48.770;9.212;2023-03-31T05:19:17;12.03;;;4.60;;
286;SDS011;127;48.770;9.212;2023-03-31T05:21:46;16.17;;;6.07;;
286;SDS011;127;48.770;9.212;2023-03-31T05:24:15;12.60;;;5.03;;
286;SDS011;127;48.770;9.212;2023-03-31T05:26:46;18.30;;;6.13;;
286;SDS011;127;48.770;9.212;2023-03-31T05:29:16;14.83;;;6.67;;
286;SDS011;127;48.770;9.212;2023-03-31T05:31:45;11.70;;;6.37;;
286;SDS011;127;48.770;9.212;2023-03-31T05:34:14;13.30;;;6.23;;
286;SDS011;127;48.770;9.212;2023-03-31T05:36:43;13.53;;;7.07;;
286;SDS011;127;48.770;9.212;2023-03-31T05:39:14;21.10;;;5.60;;
286;SDS011;127;48.770;9.212;2023-03-31T05:41:45;15.30;;;7.07;;
286;SDS011;127;48.770;9.212;2023-03-31T05:44:14;20.97;;;7.40;;
286;SDS011;127;48.770;9.212;2023-03-31T05:46:44;20.27;;;7.70;;
286;SDS011;127;48.770;9.212;2023-03-31T05:49:13;15.53;;;6.10;;
286;SDS011;127;48.770;9.212;2023-03-31T05:51:42;18.47;;;7.30;;
286;SDS011;127;48.770;9.212;2023-03-31T05:54:10;22.73;;;7.00;;
286;SDS011;127;48.770;9.212;2023-03-31T05:56:39;20.60;;;7.70;;
286;SDS011;127;48.770;9.212;2023-03-31T05:59:10;15.17;;;6.90;;
286;SDS011;127;48.770;9.212;2023-03-31T06:01:39;18.97;;;6.80;;
286;SDS011;127;48.770;9.212;2023-03-31T06:04:08;14.17;;;7.93;;
286;SDS011;127;48.770;9.212;2023-03-31T06:06:36;13.43;;;7.23;;
286;SDS011;127;48.770;9.212;2023-03-31T06:09:07;17.07;;;7.27;;
286;SDS011;127;48.770;9.212;2023-03-31T06:11:36;14.80;;;7.90;;
286;SDS011;127;48.770;9.212;2023-03-31T06:14:05;13.23;;;7.20;;
286;SDS011;127;48.770;9.212;2023-03-31T06:16:36;16.53;;;7.70;;
286;SDS011;127;48.770;9.212;2023-03-31T06:19:05;13.53;;;7.90;;
286;SDS011;127;48.770;9.212;2023-03-31T06:21:34;14.63;;;8.13;;
286;SDS011;127;48.770;9.212;2023-03-31T06:24:02;26.03;;;8.23;;
286;SDS011;127;48.770;9.212;2023-03-31T06:26:31;24.30;;;8.50;;
286;SDS011;127;48.770;9.212;2023-03-31T06:28:59;19.33;;;8.43;;
286;SDS011;127;48.770;9.212;2023-03-31T06:31:28;31.97;;;9.30;;
286;SDS011;127;48.770;9.212;2023-03-31T06:33:59;16.60;;;8.57;;
286;SDS011;127;48.770;9.212;2023-03-31T06:36:28;18.43;;;8.10;;
286;SDS011;127;48.770;9.212;2023-03-31T06:38:56;20.30;;;7.70;;
286;SDS011;127;48.770;9.212;2023-03-31T06:41:25;22.63;;;8.53;;
286;SDS011;127;48.770;9.212;2023-03-31T06:43:54;22.92;;;8.80;;
286;SDS011;127;48.770;9.212;2023-03-31T06:46:23;22.83;;;9.57;;
286;SDS011;127;48.770;9.212;2023-03-31T06:48:51;22.93;;;9.17;;
286;SDS011;127;48.770;9.212;2023-03-31T06:51:22;26.10;;;9.60;;
286;SDS011;127;48.770;9.212;2023-03-31T06:53:51;19.43;;;10.00;;
286;SDS011;127;48.770;9.212;2023-03-31T06:56:20;29.10;;;9.50;;
286;SDS011;127;48.770;9.212;2023-03-31T06:58:48;27.03;;;9.03;;
286;SDS011;127;48.770;9.212;2023-03-31T07:01:17;18.23;;;8.43;;
286;SDS011;127;48.770;9.212;2023-03-31T07:03:45;19.20;;;9.00;;
286;SDS011;127;48.770;9.212;2023-03-31T07:06:14;15.17;;;8.63;;
286;SDS011;127;48.770;9.212;2023-03-31T07:08:45;20.47;;;7.60;;
286;SDS011;127;48.770;9.212;2023-03-31T07:11:14;18.17;;;8.10;;
286;SDS011;127;48.770;9.212;2023-03-31T07:13:43;21.90;;;7.53;;
286;SDS011;127;48.770;9.212;2023-03-31T07:16:11;17.70;;;6.87;;
286;SDS011;127;48.770;9.212;2023-03-31T07:18:40;14.63;;;6.40;;
286;SDS011;127;48.770;9.212;2023-03-31T07:21:09;12.60;;;5.33;;
286;SDS011;127;48.770;9.212;2023-03-31T07:23:37;12.23;;;6.50;;
286;SDS011;127;48.770;9.212;2023-03-31T07:26:09;8.57;;;5.00;;
286;SDS011;127;48.770;9.212;2023-03-31T07:28:37;15.10;;;5.00;;
286;SDS011;127;48.770;9.212;2023-03-31T07:31:09;12.27;;;5.07;;
286;SDS011;127;48.770;9.212;2023-03-31T07:33:39;13.73;;;6.03;;
286;SDS011;127;48.770;9.212;2023-03-31T07:36:08;14.30;;;4.97;;
286;SDS011;127;48.770;9.212;2023-03-31T07:38:38;7.97;;;4.50;;
286;SDS011;127;48.770;9.212;2023-03-31T07:41:11;10.47;;;3.73;;
286;SDS011;127;48.770;9.212;2023-03-31T07:43:41;8.40;;;4.10;;
286;SDS011;127;48.770;9.212;2023-03-31T07:46:14;7.10;;;2.77;;
286;SDS011;127;48.770;9.212;2023-03-31T07:48:44;3.57;;;2.40;;
286;SDS011;127;48.770;9.212;2023-03-31T07:51:14;3.03;;;2.53;;
286;SDS011;127;48.770;9.212;2023-03-31T07:53:43;3.67;;;2.50;;
286;SDS011;127;48.770;9.212;2023-03-31T07:56:15;3.10;;;2.20;;
286;SDS011;127;48.770;9.212;2023-03-31T07:58:45;5.70;;;2.10;;
286;SDS011;127;48.770;9.212;2023-03-31T08:01:15;3.10;;;1.80;;
286;SDS011;127;48.770;9.212;2023-03-31T08:03:45;1.80;;;1.77;;
286;SDS011;127;48.770;9.212;2023-03-31T08:06:17;2.00;;;1.67;;
286;SDS011;127;48.770;9.212;2023-03-31T08:08:46;5.47;;;1.80;;
286;SDS011;127;48.770;9.212;2023-03-31T08:11:17;2.90;;;1.90;;
286;SDS011;127;48.770;9.212;2023-03-31T08:13:46;3.50;;;1.90;;
286;SDS011;127;48.770;9.212;2023-03-31T08:16:15;3.77;;;1.90;;
286;SDS011;127;48.770;9.212;2023-03-31T08:18:44;2.13;;;1.60;;
286;SDS011;127;48.770;9.212;2023-03-31T08:21:12;2.60;;;1.23;;
286;SDS011;127;48.770;9.212;2023-03-31T08:23:41;1.87;;;1.50;;
286;SDS011;127;48.770;9.212;2023-03-31T08:26:10;3.20;;;1.60;;
286;SDS011;127;48.770;9.212;2023-03-31T08:28:44;3.73;;;1.40;;
286;SDS011;127;48.770;9.212;2023-03-31T08:31:15;2.00;;;1.43;;
286;SDS011;127;48.770;9.212;2023-03-31T08:33:45;2.53;;;1.40;;
286;SDS011;127;48.770;9.212;2023-03-31T08:36:14;3.93;;;1.53;;
286;SDS011;127;48.770;9.212;2023-03-31T08:38:43;2.30;;;1.90;;
286;SDS011;127;48.770;9.212;2023-03-31T08:41:18;2.83;;;1.20;;
286;SDS011;127;48.770;9.212;2023-03-31T08:44:00;10.57;;;2.03;;
286;SDS011;127;48.770;9.212;2023-03-31T08:46:31;1.97;;;1.20;;
286;SDS011;127;48.770;9.212;2023-03-31T08:49:02;2.50;;;1.53;;
286;SDS011;127;48.770;9.212;2023-03-31T08:51:34;5.80;;;1.67;;
286;SDS011;127;48.770;9.212;2023-03-31T08:54:10;5.63;;;1.93;;
286;SDS011;127;48.770;9.212;2023-03-31T08:56:43;3.90;;;1.60;;
286;SDS011;127;48.770;9.212;2023-03-31T08:59:20;3.03;;;1.53;;
286;SDS011;127;48.770;9.212;2023-03-31T09:01:55;3.83;;;1.60;;
286;SDS011;127;48.770;9.212;2023-03-31T09:04:36;6.53;;;2.13;;
286;SDS011;127;48.770;9.212;2023-03-31T09:07:16;5.93;;;1.83;;
286;SDS011;127;48.770;9.212;2023-03-31T09:09:54;8.80;;;2.33;;
286;SDS011;127;48.770;9.212;2023-03-31T09:12:32;8.10;;;1.87;;
286;SDS011;127;48.770;9.212;2023-03-31T09:15:11;7.57;;;1.53;;
286;SDS011;127;48.770;9.212;2023-03-31T09:17:47;2.83;;;1.53;;
286;SDS011;127;48.770;9.212;2023-03-31T09:20:20;7.87;;;1.50;;
286;SDS011;127;48.770;9.212;2023-03-31T09:22:54;7.93;;;1.30;;
286;SDS011;127;48.770;9.212;2023-03-31T09:25:30;4.10;;;1.53;;
286;SDS011;127;48.770;9.212;2023-03-31T09:28:05;7.20;;;1.37;;
286;SDS011;127;48.770;9.212;2023-03-31T09:30:44;6.23;;;1.73;;
286;SDS011;127;48.770;9.212;2023-03-31T09:33:17;9.57;;;1.90;;
286;SDS011;127;48.770;9.212;2023-03-31T09:35:51;4.20;;;1.40;;
286;SDS011;127;48.770;9.212;2023-03-31T09:38:20;8.10;;;1.60;;
286;SDS011;127;48.770;9.212;2023-03-31T09:40:48;4.70;;;2.00;;
286;SDS011;127;48.770;9.212;2023-03-31T09:43:18;5.10;;;2.07;;
286;SDS011;127;48.770;9.212;2023-03-31T09:45:53;3.47;;;1.40;;
286;SDS011;127;48.770;9.212;2023-03-31T09:48:24;7.87;;;1.97;;
286;SDS011;127;48.770;9.212;2023-03-31T09:50:56;3.43;;;1.87;;
286;SDS011;127;48.770;9.212;2023-03-31T09:53:28;5.97;;;1.80;;
286;SDS011;127;48.770;9.212;2023-03-31T09:56:05;2.80;;;1.50;;
286;SDS011;127;48.770;9.212;2023-03-31T09:58:39;7.63;;;2.03;;
286;SDS011;127;48.770;9.212;2023-03-31T10:01:11;5.20;;;1.50;;
286;SDS011;127;48.770;9.212;2023-03-31T10:03:43;8.77;;;1.77;;
286;SDS011;127;48.770;9.212;2023-03-31T10:06:18;9.13;;;2.27;;
286;SDS011;127;48.770;9.212;2023-03-31T10:08:48;7.20;;;1.70;;
286;SDS011;127;48.770;9.212;2023-03-31T10:11:18;7.93;;;2.10;;
286;SDS011;127;48.770;9.212;2023-03-31T10:13:48;6.17;;;1.80;;
286;SDS011;127;48.770;9.212;2023-03-31T10:16:26;4.53;;;1.60;;
286;SDS011;127;48.770;9.212;2023-03-31T10:19:10;7.20;;;1.70;;
286;SDS011;127;48.770;9.212;2023-03-31T10:21:40;5.20;;;1.77;;
286;SDS011;127;48.770;9.212;2023-03-31T10:24:16;4.20;;;1.90;;
286;SDS011;127;48.770;9.212;2023-03-31T10:26:46;5.40;;;1.90;;
286;SDS011;127;48.770;9.212;2023-03-31T10:29:17;10.43;;;2.17;;
286;SDS011;127;48.770;9.212;2023-03-31T10:31:53;5.63;;;1.60;;
286;SDS011;127;48.770;9.212;2023-03-31T10:34:22;6.90;;;1.90;;
286;SDS011;127;48.770;9.212;2023-03-31T10:36:51;4.10;;;1.80;;
286;SDS011;127;48.770;9.212;2023-03-31T10:39:20;5.50;;;1.70;;
286;SDS011;127;48.770;9.212;2023-03-31T10:41:57;5.00;;;2.20;;
286;SDS011;127;48.770;9.212;2023-03-31T10:44:31;7.30;;;2.27;;
286;SDS011;127;48.770;9.212;2023-03-31T10:47:15;6.50;;;2.10;;
286;SDS011;127;48.770;9.212;2023-03-31T10:49:47;6.93;;;1.70;;
286;SDS011;127;48.770;9.212;2023-03-31T10:52:19;9.07;;;2.10;;
286;SDS011;127;48.770;9.212;2023-03-31T10:54:50;4.77;;;1.87;;
286;SDS011;127;48.770;9.212;2023-03-31T10:57:23;4.03;;;2.23;;
286;SDS011;127;48.770;9.212;2023-03-31T11:00:02;8.20;;;1.93;;
286;SDS011;127;48.770;9.212;2023-03-31T11:05:35;11.27;;;1.90;;
286;SDS011;127;48.770;9.212;2023-03-31T11:08:13;8.67;;;2.33;;
286;SDS011;127;48.770;9.212;2023-03-31T11:11:05;5.90;;;1.90;;
286;SDS011;127;48.770;9.212;2023-03-31T11:13:43;5.67;;;2.10;;
286;SDS011;127;48.770;9.212;2023-03-31T11:16:21;5.00;;;1.73;;
286;SDS011;127;48.770;9.212;2023-03-31T11:19:05;8.20;;;2.30;;
286;SDS011;127;48.770;9.212;2023-03-31T11:21:49;10.80;;;1.97;;
286;SDS011;127;48.770;9.212;2023-03-31T11:24:31;5.70;;;2.10;;
286;SDS011;127;48.770;9.212;2023-03-31T11:27:20;6.30;;;2.00;;
286;SDS011;127;48.770;9.212;2023-03-31T11:30:03;2.90;;;1.43;;
286;SDS011;127;48.770;9.212;2023-03-31T11:32:41;2.33;;;1.30;;
286;SDS011;127;48.770;9.212;2023-03-31T11:35:33;12.63;;;3.40;;
286;SDS011;127;48.770;9.212;2023-03-31T11:38:22;8.57;;;2.03;;
286;SDS011;127;48.770;9.212;2023-03-31T11:41:02;2.70;;;1.60;;
286;SDS011;127;48.770;9.212;2023-03-31T11:43:35;6.93;;;1.87;;
286;SDS011;127;48.770;9.212;2023-03-31T11:46:10;1.80;;;1.70;;
286;SDS011;127;48.770;9.212;2023-03-31T11:48:43;2.13;;;1.37;;
286;SDS011;127;48.770;9.212;2023-03-31T11:51:24;4.00;;;1.33;;
286;SDS011;127;48.770;9.212;2023-03-31T11:53:56;1.60;;;1.27;;
286;SDS011;127;48.770;9.212;2023-03-31T11:56:32;4.30;;;1.50;;
286;SDS011;127;48.770;9.212;2023-03-31T11:59:03;2.97;;;1.53;;
286;SDS011;127;48.770;9.212;2023-03-31T12:01:35;2.63;;;1.70;;
286;SDS011;127;48.770;9.212;2023-03-31T12:04:11;1.30;;;1.30;;
286;SDS011;127;48.770;9.212;2023-03-31T12:06:52;4.10;;;1.40;;
286;SDS011;127;48.770;9.212;2023-03-31T12:09:29;3.47;;;1.00;;
286;SDS011;127;48.770;9.212;2023-03-31T12:12:04;1.37;;;0.90;;
286;SDS011;127;48.770;9.212;2023-03-31T12:14:42;2.50;;;1.30;;
286;SDS011;127;48.770;9.212;2023-03-31T12:17:16;1.50;;;1.10;;
286;SDS011;127;48.770;9.212;2023-03-31T12:19:50;1.60;;;1.30;;
286;SDS011;127;48.770;9.212;2023-03-31T12:22:24;2.00;;;1.00;;
286;SDS011;127;48.770;9.212;2023-03-31T12:24:56;4.93;;;1.07;;
286;SDS011;127;48.770;9.212;2023-03-31T12:27:25;3.50;;;1.10;;
286;SDS011;127;48.770;9.212;2023-03-31T12:30:02;6.33;;;1.37;;
286;SDS011;127;48.770;9.212;2023-03-31T12:32:35;2.80;;;1.20;;
286;SDS011;127;48.770;9.212;2023-03-31T12:35:10;1.40;;;0.70;;
286;SDS011;127;48.770;9.212;2023-03-31T12:40:56;2.40;;;0.80;;
286;SDS011;127;48.770;9.212;2023-03-31T12:43:41;1.30;;;0.83;;
286;SDS011;127;48.770;9.212;2023-03-31T12:46:26;2.60;;;0.80;;
286;SDS011;127;48.770;9.212;2023-03-31T12:49:27;1.40;;;0.77;;
286;SDS011;127;48.770;9.212;2023-03-31T12:52:07;4.70;;;1.07;;
286;SDS011;127;48.770;9.212;2023-03-31T12:57:47;5.67;;;2.13;;
286;SDS011;127;48.770;9.212;2023-03-31T13:00:26;3.30;;;1.03;;
286;SDS011;127;48.770;9.212;2023-03-31T13:06:00;4.00;;;1.07;;
286;SDS011;127;48.770;9.212;2023-03-31T13:11:20;2.50;;;1.17;;
286;SDS011;127;48.770;9.212;2023-03-31T13:14:03;6.10;;;1.33;;
286;SDS011;127;48.770;9.212;2023-03-31T13:16:34;6.80;;;1.73;;
286;SDS011;127;48.770;9.212;2023-03-31T13:19:03;3.33;;;1.30;;
286;SDS011;127;48.770;9.212;2023-03-31T13:21:35;4.23;;;1.53;;
286;SDS011;127;48.770;9.212;2023-03-31T13:24:20;10.47;;;1.50;;
286;SDS011;127;48.770;9.212;2023-03-31T13:26:53;6.43;;;2.10;;
286;SDS011;127;48.770;9.212;2023-03-31T13:29:23;3.40;;;1.30;;
286;SDS011;127;48.770;9.212;2023-03-31T13:34:49;6.13;;;1.50;;
286;SDS011;127;48.770;9.212;2023-03-31T13:37:33;8.63;;;1.47;;
286;SDS011;127;48.770;9.212;2023-03-31T13:40:19;2.50;;;1.20;;
286;SDS011;127;48.770;9.212;2023-03-31T13:43:12;6.07;;;1.23;;
286;SDS011;127;48.770;9.212;2023-03-31T13:45:58;2.57;;;1.13;;
286;SDS011;127;48.770;9.212;2023-03-31T13:48:57;1.20;;;1.20;;
286;SDS011;127;48.770;9.212;2023-03-31T13:51:54;2.30;;;1.10;;
286;SDS011;127;48.770;9.212;2023-03-31T13:57:26;1.87;;;1.07;;
286;SDS011;127;48.770;9.212;2023-03-31T14:00:28;2.60;;;1.40;;
286;SDS011;127;48.770;9.212;2023-03-31T14:03:05;1.63;;;1.30;;
286;SDS011;127;48.770;9.212;2023-03-31T14:05:48;1.43;;;1.33;;
286;SDS011;127;48.770;9.212;2023-03-31T14:08:24;2.17;;;1.20;;
286;SDS011;127;48.770;9.212;2023-03-31T14:11:14;2.40;;;1.40;;
286;SDS011;127;48.770;9.212;2023-03-31T14:13:57;4.77;;;1.43;;
286;SDS011;127;48.770;9.212;2023-03-31T14:16:30;1.73;;;1.20;;
286;SDS011;127;48.770;9.212;2023-03-31T14:19:07;2.87;;;1.10;;
286;SDS011;127;48.770;9.212;2023-03-31T14:21:54;1.10;;;1.00;;
286;SDS011;127;48.770;9.212;2023-03-31T14:24:32;2.27;;;0.93;;
286;SDS011;127;48.770;9.212;2023-03-31T14:27:05;4.00;;;1.00;;
286;SDS011;127;48.770;9.212;2023-03-31T14:29:45;1.40;;;0.80;;
286;SDS011;127;48.770;9.212;2023-03-31T14:32:23;2.30;;;0.80;;
286;SDS011;127;48.770;9.212;2023-03-31T14:35:01;7.30;;;1.20;;
286;SDS011;127;48.770;9.212;2023-03-31T14:37:41;1.67;;;1.07;;
286;SDS011;127;48.770;9.212;2023-03-31T14:40:13;4.40;;;1.30;;
286;SDS011;127;48.770;9.212;2023-03-31T14:42:44;2.60;;;0.80;;
286;SDS011;127;48.770;9.212;2023-03-31T14:45:17;2.80;;;0.90;;
286;SDS011;127;48.770;9.212;2023-03-31T14:47:55;3.20;;;1.00;;
286;SDS011;127;48.770;9.212;2023-03-31T14:50:29;3.57;;;1.03;;
286;SDS011;127;48.770;9.212;2023-03-31T14:53:01;4.63;;;1.20;;
286;SDS011;127;48.770;9.212;2023-03-31T14:55:30;2.10;;;0.80;;
286;SDS011;127;48.770;9.212;2023-03-31T14:58:00;2.40;;;0.87;;
286;SDS011;127;48.770;9.212;2023-03-31T15:00:30;2.07;;;1.10;;
286;SDS011;127;48.770;9.212;2023-03-31T15:03:04;9.40;;;1.00;;
286;SDS011;127;48.770;9.212;2023-03-31T15:05:37;3.30;;;1.10;;
286;SDS011;127;48.770;9.212;2023-03-31T15:08:10;1.20;;;0.90;;
286;SDS011;127;48.770;9.212;2023-03-31T15:10:41;2.23;;;1.07;;
286;SDS011;127;48.770;9.212;2023-03-31T15:13:14;3.07;;;1.20;;
286;SDS011;127;48.770;9.212;2023-03-31T15:15:46;1.60;;;1.37;;
286;SDS011;127;48.770;9.212;2023-03-31T15:18:18;2.53;;;0.97;;
286;SDS011;127;48.770;9.212;2023-03-31T15:20:46;4.63;;;1.27;;
286;SDS011;127;48.770;9.212;2023-03-31T15:23:19;5.57;;;1.40;;
286;SDS011;127;48.770;9.212;2023-03-31T15:25:50;3.67;;;1.30;;
286;SDS011;127;48.770;9.212;2023-03-31T15:28:22;2.60;;;1.07;;
286;SDS011;127;48.770;9.212;2023-03-31T15:30:54;2.33;;;1.20;;
286;SDS011;127;48.770;9.212;2023-03-31T15:33:27;2.93;;;1.20;;
286;SDS011;127;48.770;9.212;2023-03-31T15:36:00;3.20;;;1.00;;
286;SDS011;127;48.770;9.212;2023-03-31T15:38:29;3.27;;;1.10;;
286;SDS011;127;48.770;9.212;2023-03-31T15:40:58;3.77;;;1.40;;
286;SDS011;127;48.770;9.212;2023-03-31T15:43:28;2.93;;;1.20;;
286;SDS011;127;48.770;9.212;2023-03-31T15:45:58;3.17;;;1.40;;
286;SDS011;127;48.770;9.212;2023-03-31T15:48:31;1.97;;;1.10;;
286;SDS011;127;48.770;9.212;2023-03-31T15:51:01;2.70;;;1.37;;
286;SDS011;127;48.770;9.212;2023-03-31T15:53:35;3.40;;;1.20;;
286;SDS011;127;48.770;9.212;2023-03-31T15:56:05;4.63;;;1.20;;
286;SDS011;127;48.770;9.212;2023-03-31T15:58:47;4.87;;;1.30;;
286;SDS011;127;48.770;9.212;2023-03-31T16:01:21;4.60;;;1.40;;
286;SDS011;127;48.770;9.212;2023-03-31T16:03:56;4.30;;;1.10;;
286;SDS011;127;48.770;9.212;2023-03-31T16:06:31;2.90;;;1.40;;
286;SDS011;127;48.770;9.212;2023-03-31T16:09:06;4.13;;;2.43;;
286;SDS011;127;48.770;9.212;2023-03-31T16:11:37;3.27;;;1.10;;
286;SDS011;127;48.770;9.212;2023-03-31T16:14:11;3.40;;;1.73;;
286;SDS011;127;48.770;9.212;2023-03-31T16:16:45;5.80;;;1.87;;
286;SDS011;127;48.770;9.212;2023-03-31T16:19:19;2.73;;;1.40;;
286;SDS011;127;48.770;9.212;2023-03-31T16:21:52;3.73;;;1.53;;
286;SDS011;127;48.770;9.212;2023-03-31T16:24:27;3.60;;;1.13;;
286;SDS011;127;48.770;9.212;2023-03-31T16:26:59;3.53;;;1.40;;
286;SDS011;127;48.770;9.212;2023-03-31T16:29:30;6.60;;;1.27;;
286;SDS011;127;48.770;9.212;2023-03-31T16:32:08;4.20;;;1.40;;
286;SDS011;127;48.770;9.212;2023-03-31T16:34:54;2.17;;;1.40;;
286;SDS011;127;48.770;9.212;2023-03-31T16:37:24;5.27;;;1.80;;
286;SDS011;127;48.770;9.212;2023-03-31T16:39:53;7.10;;;1.40;;
286;SDS011;127;48.770;9.212;2023-03-31T16:42:22;3.50;;;1.40;;
286;SDS011;127;48.770;9.212;2023-03-31T16:44:51;1.40;;;1.30;;
286;SDS011;127;48.770;9.212;2023-03-31T16:47:19;2.97;;;1.20;;
286;SDS011;127;48.770;9.212;2023-03-31T16:49:49;2.53;;;1.60;;
286;SDS011;127;48.770;9.212;2023-03-31T16:52:20;4.43;;;1.57;;